sensor_id;sensor_type;location;lat;lon;timestamp;pressure;altitude;pressure_sealevel;temperature;humidity
50854;BME280;44154;45.506;-122.806;2023-04-10T00:00:44;101048.38;;;26.11;36.59
50854;BME280;44154;45.506;-122.806;2023-04-10T00:03:10;101050.66;;;25.97;36.92
50854;BME280;44154;45.506;-122.806;2023-04-10T00:05:37;101057.06;;;26.03;36.88
50854;BME280;44154;45.506;-122.806;2023-04-10T00:08:03;101052.03;;;25.94;37.08
50854;BME280;44154;45.506;-122.806;2023-04-10T00:10:29;101061.06;;;25.95;36.92
50854;BME280;44154;45.506;-122.806;2023-04-10T00:12:57;101035.97;;;25.81;36.75
50854;BME280;44154;45.506;-122.806;2023-04-10T00:15:25;101058.50;;;25.88;37.04
50854;BME280;44154;45.506;-122.806;2023-04-10T00:17:53;101046.91;;;25.81;37.12
50854;BME280;44154;45.506;-122.806;2023-04-10T00:20:20;101055.16;;;26.03;36.86
50854;BME280;44154;45.506;-122.806;2023-04-10T00:22:48;101052.88;;;26.22;36.42
50854;BME280;44154;45.506;-122.806;2023-04-10T00:25:14;101042.97;;;26.21;36.48
50854;BME280;44154;45.506;-122.806;2023-04-10T00:27:40;101054.03;;;26.31;36.20
50854;BME280;44154;45.506;-122.806;2023-04-10T00:30:07;101058.63;;;26.26;36.31
50854;BME280;44154;45.506;-122.806;2023-04-10T00:32:33;101046.44;;;26.11;36.59
50854;BME280;44154;45.506;-122.806;2023-04-10T00:35:00;101043.13;;;26.09;36.44
50854;BME280;44154;45.506;-122.806;2023-04-10T00:37:26;101038.72;;;26.08;36.46
50854;BME280;44154;45.506;-122.806;2023-04-10T00:39:52;101035.03;;;25.97;36.90
50854;BME280;44154;45.506;-122.806;2023-04-10T00:42:18;101050.38;;;25.98;36.86
50854;BME280;44154;45.506;-122.806;2023-04-10T00:44:44;101046.84;;;25.98;37.26
50854;BME280;44154;45.506;-122.806;2023-04-10T00:47:12;101048.50;;;25.99;36.95
50854;BME280;44154;45.506;-122.806;2023-04-10T00:49:39;101043.00;;;25.99;36.83
50854;BME280;44154;45.506;-122.806;2023-04-10T00:52:06;101045.16;;;25.97;37.14
50854;BME280;44154;45.506;-122.806;2023-04-10T00:54:34;101047.66;;;25.98;36.90
50854;BME280;44154;45.506;-122.806;2023-04-10T00:57:02;101044.03;;;25.93;37.05
50854;BME280;44154;45.506;-122.806;2023-04-10T00:59:29;101052.84;;;25.95;37.04
50854;BME280;44154;45.506;-122.806;2023-04-10T01:01:56;101046.53;;;25.94;37.43
50854;BME280;44154;45.506;-122.806;2023-04-10T01:04:23;101047.91;;;26.19;36.78
50854;BME280;44154;45.506;-122.806;2023-04-10T01:17:34;101032.03;;;25.72;37.04
50854;BME280;44154;45.506;-122.806;2023-04-10T01:20:02;101037.00;;;25.75;37.37
50854;BME280;44154;45.506;-122.806;2023-04-10T01:22:41;101040.28;;;25.77;37.00
50854;BME280;44154;45.506;-122.806;2023-04-10T01:28:28;101045.22;;;25.75;37.13
50854;BME280;44154;45.506;-122.806;2023-04-10T01:30:58;101044.59;;;25.68;37.69
50854;BME280;44154;45.506;-122.806;2023-04-10T01:33:34;101049.66;;;25.81;37.52
50854;BME280;44154;45.506;-122.806;2023-04-10T01:36:05;101049.31;;;26.00;37.18
50854;BME280;44154;45.506;-122.806;2023-04-10T01:38:32;101033.91;;;25.93;37.03
50854;BME280;44154;45.506;-122.806;2023-04-10T01:41:01;101046.56;;;26.00;36.92
50854;BME280;44154;45.506;-122.806;2023-04-10T01:43:28;101046.53;;;25.94;37.10
50854;BME280;44154;45.506;-122.806;2023-04-10T01:45:56;101051.97;;;25.89;37.33
50854;BME280;44154;45.506;-122.806;2023-04-10T01:48:23;101044.25;;;25.86;37.27
50854;BME280;44154;45.506;-122.806;2023-04-10T01:50:51;101051.88;;;25.84;37.41
50854;BME280;44154;45.506;-122.806;2023-04-10T01:53:19;101035.06;;;25.75;37.31
50854;BME280;44154;45.506;-122.806;2023-04-10T01:55:46;101041.16;;;25.77;37.66
50854;BME280;44154;45.506;-122.806;2023-04-10T01:58:13;101056.75;;;25.77;37.43
50854;BME280;44154;45.506;-122.806;2023-04-10T02:00:40;101045.38;;;25.63;37.67
50854;BME280;44154;45.506;-122.806;2023-04-10T02:03:08;101044.34;;;25.69;37.89
50854;BME280;44154;45.506;-122.806;2023-04-10T02:08:36;101057.16;;;25.63;37.92
50854;BME280;44154;45.506;-122.806;2023-04-10T02:11:12;101055.47;;;25.62;37.55
50854;BME280;44154;45.506;-122.806;2023-04-10T02:13:40;101038.88;;;25.47;38.15
50854;BME280;44154;45.506;-122.806;2023-04-10T02:16:07;101057.16;;;25.63;38.23
50854;BME280;44154;45.506;-122.806;2023-04-10T02:18:36;101060.25;;;25.72;38.08
50854;BME280;44154;45.506;-122.806;2023-04-10T02:21:03;101045.22;;;25.75;37.90
50854;BME280;44154;45.506;-122.806;2023-04-10T02:23:30;101062.66;;;25.91;37.86
50854;BME280;44154;45.506;-122.806;2023-04-10T02:25:56;101022.59;;;25.62;37.67
50854;BME280;44154;45.506;-122.806;2023-04-10T02:28:23;101067.25;;;25.85;37.98
50854;BME280;44154;45.506;-122.806;2023-04-10T02:30:49;101069.13;;;25.79;38.15
50854;BME280;44154;45.506;-122.806;2023-04-10T02:33:16;101066.19;;;25.86;38.13
50854;BME280;44154;45.506;-122.806;2023-04-10T02:35:42;101063.97;;;25.83;38.00
50854;BME280;44154;45.506;-122.806;2023-04-10T02:38:08;101015.66;;;25.55;38.20
50854;BME280;44154;45.506;-122.806;2023-04-10T02:40:35;101067.22;;;25.80;37.96
50854;BME280;44154;45.506;-122.806;2023-04-10T02:43:01;101075.19;;;25.82;37.98
50854;BME280;44154;45.506;-122.806;2023-04-10T02:45:27;101068.03;;;25.80;37.62
50854;BME280;44154;45.506;-122.806;2023-04-10T02:47:53;101069.63;;;25.76;38.02
50854;BME280;44154;45.506;-122.806;2023-04-10T02:50:19;101068.81;;;25.76;37.97
50854;BME280;44154;45.506;-122.806;2023-04-10T02:52:46;101070.41;;;25.72;37.91
50854;BME280;44154;45.506;-122.806;2023-04-10T02:55:12;101075.88;;;25.72;38.51
50854;BME280;44154;45.506;-122.806;2023-04-10T02:57:39;101072.72;;;25.80;38.44
50854;BME280;44154;45.506;-122.806;2023-04-10T03:00:07;101083.78;;;25.68;39.03
50854;BME280;44154;45.506;-122.806;2023-04-10T03:02:33;101084.16;;;25.77;38.67
50854;BME280;44154;45.506;-122.806;2023-04-10T03:05:00;101091.94;;;25.85;38.80
50854;BME280;44154;45.506;-122.806;2023-04-10T03:07:27;101085.91;;;25.83;38.40
50854;BME280;44154;45.506;-122.806;2023-04-10T03:09:53;101076.41;;;25.69;38.52
50854;BME280;44154;45.506;-122.806;2023-04-10T03:12:19;101087.16;;;25.75;38.63
50854;BME280;44154;45.506;-122.806;2023-04-10T03:14:45;101097.22;;;25.70;39.11
50854;BME280;44154;45.506;-122.806;2023-04-10T03:17:11;101093.69;;;25.69;38.68
50854;BME280;44154;45.506;-122.806;2023-04-10T03:19:38;101102.78;;;25.75;38.44
50854;BME280;44154;45.506;-122.806;2023-04-10T03:22:04;101107.25;;;25.81;38.27
50854;BME280;44154;45.506;-122.806;2023-04-10T03:24:30;101109.47;;;25.84;38.29
50854;BME280;44154;45.506;-122.806;2023-04-10T03:26:56;101095.72;;;25.79;37.89
50854;BME280;44154;45.506;-122.806;2023-04-10T03:29:23;101112.72;;;25.81;38.04
50854;BME280;44154;45.506;-122.806;2023-04-10T03:31:49;101111.91;;;25.80;38.33
50854;BME280;44154;45.506;-122.806;2023-04-10T03:34:15;101120.16;;;25.86;37.76
50854;BME280;44154;45.506;-122.806;2023-04-10T03:36:41;101120.16;;;25.86;37.79
50854;BME280;44154;45.506;-122.806;2023-04-10T03:39:08;101123.69;;;25.81;38.33
50854;BME280;44154;45.506;-122.806;2023-04-10T03:41:34;101126.31;;;25.71;38.61
50854;BME280;44154;45.506;-122.806;2023-04-10T03:44:00;101127.59;;;25.85;38.49
50854;BME280;44154;45.506;-122.806;2023-04-10T03:46:28;101131.44;;;26.06;38.29
50854;BME280;44154;45.506;-122.806;2023-04-10T03:48:54;101133.47;;;26.16;37.94
50854;BME280;44154;45.506;-122.806;2023-04-10T03:51:20;101134.31;;;26.22;37.67
50854;BME280;44154;45.506;-122.806;2023-04-10T03:53:49;101144.81;;;26.25;37.58
50854;BME280;44154;45.506;-122.806;2023-04-10T03:56:16;101140.66;;;26.22;37.24
50854;BME280;44154;45.506;-122.806;2023-04-10T03:58:42;101131.28;;;26.18;37.76
50854;BME280;44154;45.506;-122.806;2023-04-10T04:01:08;101143.97;;;26.24;37.16
50854;BME280;44154;45.506;-122.806;2023-04-10T04:03:34;101132.88;;;26.14;37.15
50854;BME280;44154;45.506;-122.806;2023-04-10T04:06:00;101146.66;;;26.19;37.43
50854;BME280;44154;45.506;-122.806;2023-04-10T04:08:26;101149.16;;;26.21;37.37
50854;BME280;44154;45.506;-122.806;2023-04-10T04:10:53;101146.59;;;26.14;37.14
50854;BME280;44154;45.506;-122.806;2023-04-10T04:13:19;101140.47;;;26.07;37.26
50854;BME280;44154;45.506;-122.806;2023-04-10T04:15:45;101155.34;;;26.11;37.49
50854;BME280;44154;45.506;-122.806;2023-04-10T04:18:12;101163.00;;;26.09;37.76
50854;BME280;44154;45.506;-122.806;2023-04-10T04:20:38;101174.22;;;26.07;37.60
50854;BME280;44154;45.506;-122.806;2023-04-10T04:23:04;101172.25;;;26.03;37.52
50854;BME280;44154;45.506;-122.806;2023-04-10T04:25:30;101165.56;;;25.98;37.44
50854;BME280;44154;45.506;-122.806;2023-04-10T04:27:57;101174.91;;;25.97;37.43
50854;BME280;44154;45.506;-122.806;2023-04-10T04:30:23;101175.66;;;25.93;38.17
50854;BME280;44154;45.506;-122.806;2023-04-10T04:32:49;101162.03;;;25.76;38.42
50854;BME280;44154;45.506;-122.806;2023-04-10T04:35:16;101132.88;;;25.70;38.14
50854;BME280;44154;45.506;-122.806;2023-04-10T04:37:42;101187.22;;;26.17;37.83
50854;BME280;44154;45.506;-122.806;2023-04-10T04:40:08;101190.34;;;26.26;37.38
50854;BME280;44154;45.506;-122.806;2023-04-10T04:42:35;101192.25;;;26.25;37.03
50854;BME280;44154;45.506;-122.806;2023-04-10T04:45:02;101196.69;;;26.26;36.85
50854;BME280;44154;45.506;-122.806;2023-04-10T04:47:28;101200.75;;;26.24;37.25
50854;BME280;44154;45.506;-122.806;2023-04-10T04:49:54;101201.00;;;26.22;36.96
50854;BME280;44154;45.506;-122.806;2023-04-10T04:52:20;101205.59;;;26.17;36.99
50854;BME280;44154;45.506;-122.806;2023-04-10T04:54:46;101211.34;;;26.15;37.06
50854;BME280;44154;45.506;-122.806;2023-04-10T04:57:12;101205.53;;;26.11;37.01
50854;BME280;44154;45.506;-122.806;2023-04-10T04:59:38;101197.53;;;26.05;37.40
50854;BME280;44154;45.506;-122.806;2023-04-10T05:02:05;101206.56;;;26.05;37.22
50854;BME280;44154;45.506;-122.806;2023-04-10T05:04:31;101215.56;;;26.01;37.26
50854;BME280;44154;45.506;-122.806;2023-04-10T05:06:57;101227.19;;;25.91;37.44
50854;BME280;44154;45.506;-122.806;2023-04-10T05:09:23;101226.69;;;25.94;37.60
50854;BME280;44154;45.506;-122.806;2023-04-10T05:11:49;101233.00;;;25.94;37.39
50854;BME280;44154;45.506;-122.806;2023-04-10T05:14:16;101240.81;;;26.03;37.20
50854;BME280;44154;45.506;-122.806;2023-04-10T05:16:42;101237.91;;;25.92;38.01
50854;BME280;44154;45.506;-122.806;2023-04-10T05:19:08;101239.63;;;25.98;37.89
50854;BME280;44154;45.506;-122.806;2023-04-10T05:21:34;101237.19;;;26.19;37.44
50854;BME280;44154;45.506;-122.806;2023-04-10T05:24:02;101220.59;;;26.31;37.10
50854;BME280;44154;45.506;-122.806;2023-04-10T05:26:28;101225.31;;;26.36;36.81
50854;BME280;44154;45.506;-122.806;2023-04-10T05:28:54;101224.75;;;26.34;37.08
50854;BME280;44154;45.506;-122.806;2023-04-10T05:31:20;101235.13;;;26.31;37.03
50854;BME280;44154;45.506;-122.806;2023-04-10T05:33:46;101214.78;;;26.05;37.17
50854;BME280;44154;45.506;-122.806;2023-04-10T05:36:12;101237.44;;;26.18;37.34
50854;BME280;44154;45.506;-122.806;2023-04-10T05:38:39;101229.47;;;26.16;37.31
50854;BME280;44154;45.506;-122.806;2023-04-10T05:41:05;101246.88;;;26.27;36.72
50854;BME280;44154;45.506;-122.806;2023-04-10T05:43:31;101240.06;;;26.29;36.94
50854;BME280;44154;45.506;-122.806;2023-04-10T05:45:57;101228.22;;;26.29;36.82
50854;BME280;44154;45.506;-122.806;2023-04-10T05:48:23;101220.84;;;26.29;37.07
50854;BME280;44154;45.506;-122.806;2023-04-10T05:50:51;101224.28;;;26.20;38.07
50854;BME280;44154;45.506;-122.806;2023-04-10T05:53:18;101214.88;;;26.10;37.06
50854;BME280;44154;45.506;-122.806;2023-04-10T05:55:44;101221.28;;;26.21;37.13
50854;BME280;44154;45.506;-122.806;2023-04-10T05:58:10;101227.38;;;26.23;36.76
50854;BME280;44154;45.506;-122.806;2023-04-10T06:00:37;101218.63;;;26.26;37.35
50854;BME280;44154;45.506;-122.806;2023-04-10T06:03:03;101216.97;;;26.25;37.09
50854;BME280;44154;45.506;-122.806;2023-04-10T06:05:29;101216.31;;;26.18;37.57
50854;BME280;44154;45.506;-122.806;2023-04-10T06:07:55;101206.44;;;26.17;37.41
50854;BME280;44154;45.506;-122.806;2023-04-10T06:10:21;101215.88;;;26.26;37.89
50854;BME280;44154;45.506;-122.806;2023-04-10T06:12:47;101214.72;;;26.22;37.83
50854;BME280;44154;45.506;-122.806;2023-04-10T06:15:14;101217.78;;;26.26;38.45
50854;BME280;44154;45.506;-122.806;2023-04-10T06:17:43;101219.16;;;26.23;38.56
50854;BME280;44154;45.506;-122.806;2023-04-10T06:20:09;101208.59;;;26.15;38.48
50854;BME280;44154;45.506;-122.806;2023-04-10T06:22:35;101218.56;;;26.21;38.37
50854;BME280;44154;45.506;-122.806;2023-04-10T06:25:01;101206.38;;;26.12;37.96
50854;BME280;44154;45.506;-122.806;2023-04-10T06:27:28;101214.09;;;26.15;38.06
50854;BME280;44154;45.506;-122.806;2023-04-10T06:29:54;101205.28;;;26.13;38.20
50854;BME280;44154;45.506;-122.806;2023-04-10T06:32:20;101209.38;;;26.10;38.11
50854;BME280;44154;45.506;-122.806;2023-04-10T06:34:46;101202.16;;;26.04;37.73
50854;BME280;44154;45.506;-122.806;2023-04-10T06:37:12;101168.34;;;25.76;37.89
50854;BME280;44154;45.506;-122.806;2023-04-10T06:39:38;101205.75;;;26.05;38.13
50854;BME280;44154;45.506;-122.806;2023-04-10T06:42:05;101204.22;;;25.97;37.63
50854;BME280;44154;45.506;-122.806;2023-04-10T06:44:31;101201.19;;;25.93;38.20
50854;BME280;44154;45.506;-122.806;2023-04-10T06:46:57;101206.81;;;26.04;38.51
50854;BME280;44154;45.506;-122.806;2023-04-10T06:49:23;101203.25;;;26.03;38.99
50854;BME280;44154;45.506;-122.806;2023-04-10T06:51:50;101198.59;;;26.04;38.51
50854;BME280;44154;45.506;-122.806;2023-04-10T06:54:16;101191.69;;;26.01;39.13
50854;BME280;44154;45.506;-122.806;2023-04-10T06:56:42;101202.34;;;25.97;40.06
50854;BME280;44154;45.506;-122.806;2023-04-10T06:59:08;101200.59;;;25.91;39.51
50854;BME280;44154;45.506;-122.806;2023-04-10T07:01:34;101193.47;;;25.90;39.46
50854;BME280;44154;45.506;-122.806;2023-04-10T07:04:01;101192.31;;;25.86;39.30
50854;BME280;44154;45.506;-122.806;2023-04-10T07:06:27;101195.56;;;25.83;39.23
50854;BME280;44154;45.506;-122.806;2023-04-10T07:08:53;101175.72;;;25.76;39.28
50854;BME280;44154;45.506;-122.806;2023-04-10T07:11:19;101190.00;;;25.78;39.74
50854;BME280;44154;45.506;-122.806;2023-04-10T07:13:45;101181.22;;;25.76;39.69
50854;BME280;44154;45.506;-122.806;2023-04-10T07:16:12;101166.03;;;25.68;40.22
50854;BME280;44154;45.506;-122.806;2023-04-10T07:18:38;101182.56;;;25.73;40.09
50854;BME280;44154;45.506;-122.806;2023-04-10T07:21:10;101181.22;;;25.76;40.44
50854;BME280;44154;45.506;-122.806;2023-04-10T07:23:37;101175.72;;;25.76;39.69
50854;BME280;44154;45.506;-122.806;2023-04-10T07:26:04;101169.41;;;25.75;39.46
50854;BME280;44154;45.506;-122.806;2023-04-10T07:28:30;101154.50;;;25.66;39.41
50854;BME280;44154;45.506;-122.806;2023-04-10T07:30:58;101160.88;;;25.72;39.71
50854;BME280;44154;45.506;-122.806;2023-04-10T07:33:24;101168.25;;;25.71;39.30
50854;BME280;44154;45.506;-122.806;2023-04-10T07:35:50;101161.38;;;25.69;39.69
50854;BME280;44154;45.506;-122.806;2023-04-10T07:38:16;101160.75;;;25.61;39.65
50854;BME280;44154;45.506;-122.806;2023-04-10T07:40:43;101158.56;;;25.63;39.57
50854;BME280;44154;45.506;-122.806;2023-04-10T07:43:09;101155.81;;;25.63;39.56
50854;BME280;44154;45.506;-122.806;2023-04-10T07:45:35;101150.84;;;25.60;39.57
50854;BME280;44154;45.506;-122.806;2023-04-10T07:48:01;101155.53;;;25.60;39.85
50854;BME280;44154;45.506;-122.806;2023-04-10T07:50:28;101134.78;;;25.47;39.77
50854;BME280;44154;45.506;-122.806;2023-04-10T07:52:55;101153.59;;;25.60;39.25
50854;BME280;44154;45.506;-122.806;2023-04-10T07:55:21;101146.44;;;25.59;38.96
50854;BME280;44154;45.506;-122.806;2023-04-10T07:57:47;101141.44;;;25.51;39.11
50854;BME280;44154;45.506;-122.806;2023-04-10T08:00:15;101136.44;;;25.48;39.00
50854;BME280;44154;45.506;-122.806;2023-04-10T08:02:41;101136.75;;;25.52;38.97
50854;BME280;44154;45.506;-122.806;2023-04-10T08:05:07;101147.28;;;25.60;38.75
50854;BME280;44154;45.506;-122.806;2023-04-10T08:07:34;101140.41;;;25.57;38.88
50854;BME280;44154;45.506;-122.806;2023-04-10T08:10:01;101148.03;;;25.55;38.84
50854;BME280;44154;45.506;-122.806;2023-04-10T08:12:27;101136.13;;;25.44;38.82
50854;BME280;44154;45.506;-122.806;2023-04-10T08:14:53;101152.56;;;25.44;38.81
50854;BME280;44154;45.506;-122.806;2023-04-10T08:17:20;101140.53;;;25.45;38.76
50854;BME280;44154;45.506;-122.806;2023-04-10T08:19:46;101147.38;;;25.48;38.82
50854;BME280;44154;45.506;-122.806;2023-04-10T08:22:12;101149.06;;;25.49;38.92
50854;BME280;44154;45.506;-122.806;2023-04-10T08:24:38;101105.66;;;25.24;38.99
50854;BME280;44154;45.506;-122.806;2023-04-10T08:27:05;101144.66;;;25.48;39.10
50854;BME280;44154;45.506;-122.806;2023-04-10T08:29:31;101148.50;;;25.47;39.02
50854;BME280;44154;45.506;-122.806;2023-04-10T08:31:57;101132.22;;;25.40;39.06
50854;BME280;44154;45.506;-122.806;2023-04-10T08:34:26;101149.31;;;25.48;39.00
50854;BME280;44154;45.506;-122.806;2023-04-10T08:36:53;101153.13;;;25.47;38.96
50854;BME280;44154;45.506;-122.806;2023-04-10T08:39:19;101145.91;;;25.40;38.81
50854;BME280;44154;45.506;-122.806;2023-04-10T08:41:45;101130.13;;;25.31;38.80
50854;BME280;44154;45.506;-122.806;2023-04-10T08:44:11;101140.13;;;25.37;38.99
50854;BME280;44154;45.506;-122.806;2023-04-10T08:46:42;101140.59;;;25.34;39.07
50854;BME280;44154;45.506;-122.806;2023-04-10T08:49:14;101139.88;;;25.38;39.00
50854;BME280;44154;45.506;-122.806;2023-04-10T08:51:45;101137.63;;;25.35;38.99
50854;BME280;44154;45.506;-122.806;2023-04-10T08:54:18;101133.50;;;25.33;38.81
50854;BME280;44154;45.506;-122.806;2023-04-10T08:56:49;101129.66;;;25.34;38.87
50854;BME280;44154;45.506;-122.806;2023-04-10T08:59:16;101123.09;;;25.35;38.71
50854;BME280;44154;45.506;-122.806;2023-04-10T09:01:43;101122.53;;;25.33;38.67
50854;BME280;44154;45.506;-122.806;2023-04-10T09:04:10;101109.47;;;25.23;38.78
50854;BME280;44154;45.506;-122.806;2023-04-10T09:06:37;101123.59;;;25.32;38.53
50854;BME280;44154;45.506;-122.806;2023-04-10T09:09:07;101118.94;;;25.32;38.75
50854;BME280;44154;45.506;-122.806;2023-04-10T09:14:29;101115.78;;;25.23;38.38
50854;BME280;44154;45.506;-122.806;2023-04-10T09:17:13;101104.75;;;25.18;38.41
50854;BME280;44154;45.506;-122.806;2023-04-10T09:19:42;101105.03;;;25.17;38.89
50854;BME280;44154;45.506;-122.806;2023-04-10T09:22:08;101107.75;;;25.17;38.99
50854;BME280;44154;45.506;-122.806;2023-04-10T09:24:36;101101.94;;;25.13;38.83
50854;BME280;44154;45.506;-122.806;2023-04-10T09:27:03;101095.66;;;25.13;38.86
50854;BME280;44154;45.506;-122.806;2023-04-10T09:29:46;101084.09;;;25.10;38.65
50854;BME280;44154;45.506;-122.806;2023-04-10T09:35:07;101074.72;;;25.06;38.57
50854;BME280;44154;45.506;-122.806;2023-04-10T09:37:34;101088.25;;;25.13;38.49
50854;BME280;44154;45.506;-122.806;2023-04-10T09:40:01;101078.63;;;25.10;38.47
50854;BME280;44154;45.506;-122.806;2023-04-10T09:42:35;101073.66;;;25.07;38.30
50854;BME280;44154;45.506;-122.806;2023-04-10T09:45:05;101071.59;;;24.98;38.33
50854;BME280;44154;45.506;-122.806;2023-04-10T09:47:31;101045.13;;;24.86;38.56
50854;BME280;44154;45.506;-122.806;2023-04-10T09:49:59;101052.00;;;24.89;38.55
50854;BME280;44154;45.506;-122.806;2023-04-10T09:52:30;101041.25;;;24.82;38.80
50854;BME280;44154;45.506;-122.806;2023-04-10T09:54:58;101047.06;;;24.86;38.53
50854;BME280;44154;45.506;-122.806;2023-04-10T09:57:27;101021.69;;;24.73;38.56
50854;BME280;44154;45.506;-122.806;2023-04-10T09:59:55;101027.81;;;24.81;38.47
50854;BME280;44154;45.506;-122.806;2023-04-10T10:02:23;101029.72;;;24.80;38.46
50854;BME280;44154;45.506;-122.806;2023-04-10T10:04:51;101018.19;;;24.78;38.74
50854;BME280;44154;45.506;-122.806;2023-04-10T10:07:18;101022.81;;;24.77;38.86
50854;BME280;44154;45.506;-122.806;2023-04-10T10:09:46;101033.03;;;24.82;39.24
50854;BME280;44154;45.506;-122.806;2023-04-10T10:13:02;101016.13;;;24.68;39.17
50854;BME280;44154;45.506;-122.806;2023-04-10T10:15:30;101032.97;;;24.77;39.31
50854;BME280;44154;45.506;-122.806;2023-04-10T10:20:34;101028.66;;;24.64;41.18
50854;BME280;44154;45.506;-122.806;2023-04-10T10:23:02;101032.81;;;24.67;41.30
50854;BME280;44154;45.506;-122.806;2023-04-10T10:25:30;101032.41;;;24.75;40.91
50854;BME280;44154;45.506;-122.806;2023-04-10T10:27:59;101045.72;;;24.88;40.16
50854;BME280;44154;45.506;-122.806;2023-04-10T10:30:30;101041.47;;;24.98;39.67
50854;BME280;44154;45.506;-122.806;2023-04-10T10:32:58;101036.50;;;24.94;40.02
50854;BME280;44154;45.506;-122.806;2023-04-10T10:35:30;100991.75;;;24.67;40.28
50854;BME280;44154;45.506;-122.806;2023-04-10T10:37:59;101031.09;;;25.00;39.91
50854;BME280;44154;45.506;-122.806;2023-04-10T10:40:47;101026.13;;;24.97;40.20
50854;BME280;44154;45.506;-122.806;2023-04-10T10:46:09;101027.63;;;24.87;40.50
50854;BME280;44154;45.506;-122.806;2023-04-10T10:48:37;101028.97;;;24.85;40.39
50854;BME280;44154;45.506;-122.806;2023-04-10T10:51:04;101025.91;;;24.81;40.71
50854;BME280;44154;45.506;-122.806;2023-04-10T10:53:34;101020.34;;;24.76;40.24
50854;BME280;44154;45.506;-122.806;2023-04-10T10:58:51;101001.03;;;24.66;40.76
50854;BME280;44154;45.506;-122.806;2023-04-10T11:01:19;100990.25;;;24.59;40.97
50854;BME280;44154;45.506;-122.806;2023-04-10T11:03:46;100995.63;;;24.54;41.38
50854;BME280;44154;45.506;-122.806;2023-04-10T11:06:17;101000.59;;;24.57;41.28
50854;BME280;44154;45.506;-122.806;2023-04-10T11:08:46;100987.69;;;24.69;41.33
50854;BME280;44154;45.506;-122.806;2023-04-10T11:16:42;100981.09;;;24.87;40.46
50854;BME280;44154;45.506;-122.806;2023-04-10T11:19:09;100980.03;;;24.88;40.12
50854;BME280;44154;45.506;-122.806;2023-04-10T11:22:06;100975.88;;;24.86;40.41
50854;BME280;44154;45.506;-122.806;2023-04-10T11:24:56;100962.88;;;24.76;40.41
50854;BME280;44154;45.506;-122.806;2023-04-10T11:27:42;100978.22;;;24.77;40.53
50854;BME280;44154;45.506;-122.806;2023-04-10T11:30:31;100966.09;;;24.73;40.50
50854;BME280;44154;45.506;-122.806;2023-04-10T11:32:59;100963.88;;;24.70;40.55
50854;BME280;44154;45.506;-122.806;2023-04-10T11:35:25;100950.69;;;24.67;40.36
50854;BME280;44154;45.506;-122.806;2023-04-10T11:38:10;100958.56;;;24.63;40.84
50854;BME280;44154;45.506;-122.806;2023-04-10T11:40:53;100953.34;;;24.62;40.77
50854;BME280;44154;45.506;-122.806;2023-04-10T11:43:19;100943.72;;;24.59;41.30
50854;BME280;44154;45.506;-122.806;2023-04-10T11:45:45;100952.66;;;24.54;41.22
50854;BME280;44154;45.506;-122.806;2023-04-10T11:48:11;100947.72;;;24.51;41.33
50854;BME280;44154;45.506;-122.806;2023-04-10T11:50:37;100945.75;;;24.64;41.38
50854;BME280;44154;45.506;-122.806;2023-04-10T11:53:19;100954.41;;;24.77;41.79
50854;BME280;44154;45.506;-122.806;2023-04-10T11:55:46;100953.06;;;24.80;42.00
50854;BME280;44154;45.506;-122.806;2023-04-10T11:58:26;100943.41;;;24.72;41.35
50854;BME280;44154;45.506;-122.806;2023-04-10T12:01:03;100948.63;;;24.74;41.36
50854;BME280;44154;45.506;-122.806;2023-04-10T12:05:57;100935.94;;;24.68;40.65
50854;BME280;44154;45.506;-122.806;2023-04-10T12:08:34;100933.69;;;24.65;40.58
50854;BME280;44154;45.506;-122.806;2023-04-10T12:11:01;100936.13;;;24.61;40.88
50854;BME280;44154;45.506;-122.806;2023-04-10T12:13:29;100913.22;;;24.50;40.94
50854;BME280;44154;45.506;-122.806;2023-04-10T12:16:02;100921.50;;;24.55;40.75
50854;BME280;44154;45.506;-122.806;2023-04-10T12:18:29;100910.81;;;24.54;40.73
50854;BME280;44154;45.506;-122.806;2023-04-10T12:20:56;100914.06;;;24.51;40.99
50854;BME280;44154;45.506;-122.806;2023-04-10T12:23:24;100914.88;;;24.51;41.03
50854;BME280;44154;45.506;-122.806;2023-04-10T12:25:51;100905.09;;;24.55;40.65
50854;BME280;44154;45.506;-122.806;2023-04-10T12:28:19;100908.59;;;24.68;40.90
50854;BME280;44154;45.506;-122.806;2023-04-10T12:30:50;100900.25;;;24.80;41.46
50854;BME280;44154;45.506;-122.806;2023-04-10T12:33:21;100891.94;;;24.74;41.61
50854;BME280;44154;45.506;-122.806;2023-04-10T12:35:48;100898.28;;;24.75;41.52
50854;BME280;44154;45.506;-122.806;2023-04-10T12:38:15;100901.50;;;24.72;41.04
50854;BME280;44154;45.506;-122.806;2023-04-10T12:41:00;100900.28;;;24.63;40.96
50854;BME280;44154;45.506;-122.806;2023-04-10T12:43:30;100846.03;;;24.37;40.82
50854;BME280;44154;45.506;-122.806;2023-04-10T12:45:57;100896.66;;;24.79;40.30
50854;BME280;44154;45.506;-122.806;2023-04-10T12:48:23;100888.75;;;25.05;40.68
50854;BME280;44154;45.506;-122.806;2023-04-10T12:50:49;100899.59;;;25.17;40.44
50854;BME280;44154;45.506;-122.806;2023-04-10T12:53:15;100887.16;;;25.09;40.55
50854;BME280;44154;45.506;-122.806;2023-04-10T12:58:24;100893.69;;;25.03;40.47
50854;BME280;44154;45.506;-122.806;2023-04-10T13:01:03;100909.28;;;25.02;40.40
50854;BME280;44154;45.506;-122.806;2023-04-10T13:03:30;100904.69;;;24.86;40.49
50854;BME280;44154;45.506;-122.806;2023-04-10T13:05:56;100918.13;;;24.87;40.34